Terminal Aerodrome Forecast
Issued by NWS

Home | Current Version | Previous Version | Graphics & Text | Print | Product List | Glossary On
Versions: 1 2 3 4 5 6 7 8 9 10 11 12 13 14 15 16 17 18 19
000
FTUS43 KUNR 121120
TAFGCC
TAF
KGCC 121120Z 1212/1312 24012KT P6SM SCT200
     FM130300 30015G25KT P6SM SCT200=

USA.gov is the U.S. government's official web portal to all federal, state and local government web resources and services.